Red Fork, Arkansas
Current Conditions -  °F | °C
As of 12:15 PM on Friday 28 Nov 2014 (Local Time) from KRNV Reporting Station
Clear Clear  
Wind Chill: 51°   Ceiling: Unl
Heat Index: 51°   Visibility: 10mi
Dew Point: 37°   Wind: 13mph
Humidity: 59%   Direction: 190°S
Pressure: 30.31"   Gusts: NA
Location:  33.8911°N, 91.2569°W
Report Text: KRNV 281815Z AUTO 19011KT 10SM CLR 10/03 A3031 RMK AO2 T01040027
Loading
Personal Weather Stations






























Interactive Weather Map New forecast layout! Learn more

10-Day Weather Forecast

Advertisements
Track Severe Weather on mobile